createdAt,value
2022-09-03T00:00:40.800Z,0
2022-09-03T00:01:44.164Z,0
2022-09-03T00:02:47.594Z,0
2022-09-03T00:04:31.364Z,0
2022-09-03T00:05:34.100Z,0
2022-09-03T00:06:37.358Z,0
2022-09-03T00:08:14.175Z,0
2022-09-03T00:09:17.899Z,0
2022-09-03T00:10:21.969Z,0
2022-09-03T00:11:57.321Z,0
2022-09-03T00:13:00.160Z,0
2022-09-03T00:14:03.185Z,0
2022-09-03T00:15:37.851Z,0
2022-09-03T00:16:40.995Z,0
2022-09-03T00:17:43.921Z,0
2022-09-03T00:19:18.950Z,0
2022-09-03T00:20:21.852Z,0
2022-09-03T00:21:24.733Z,0
2022-09-03T00:22:59.645Z,0
2022-09-03T00:24:02.752Z,0
2022-09-03T00:25:05.573Z,0
2022-09-03T00:26:40.743Z,0
2022-09-03T00:27:43.529Z,0
2022-09-03T00:28:47.070Z,0
2022-09-03T00:30:27.836Z,0
2022-09-03T00:31:31.357Z,0
2022-09-03T00:32:34.320Z,0
2022-09-03T00:34:10.074Z,0
2022-09-03T00:35:13.022Z,0
2022-09-03T00:36:15.990Z,0
2022-09-03T00:37:56.635Z,0
2022-09-03T00:38:59.502Z,0
2022-09-03T00:40:02.877Z,0
2022-09-03T00:41:37.946Z,0
2022-09-03T00:42:40.927Z,0
2022-09-03T00:43:43.881Z,0
2022-09-03T00:45:20.882Z,0
2022-09-03T00:46:26.236Z,0
2022-09-03T00:47:29.390Z,0
2022-09-03T00:49:08.884Z,0
2022-09-03T00:50:12.023Z,0
2022-09-03T00:51:14.853Z,0
2022-09-03T00:52:56.142Z,0
2022-09-03T00:53:59.560Z,0
2022-09-03T00:55:04.325Z,0
2022-09-03T00:56:39.436Z,0
2022-09-03T00:57:42.457Z,0
2022-09-03T00:58:45.919Z,0
2022-09-03T01:00:40.725Z,0
2022-09-03T01:01:44.848Z,0
2022-09-03T01:02:49.065Z,0
2022-09-03T01:04:24.246Z,0
2022-09-03T01:05:29.001Z,0
2022-09-03T01:06:32.117Z,0
2022-09-03T01:08:07.099Z,0
2022-09-03T01:09:13.004Z,0
2022-09-03T01:10:16.149Z,0
2022-09-03T01:11:51.242Z,0
2022-09-03T01:12:54.400Z,0
2022-09-03T01:13:57.609Z,0
2022-09-03T01:15:33.119Z,0
2022-09-03T01:16:36.715Z,0
2022-09-03T01:17:39.910Z,0
2022-09-03T01:19:14.898Z,0
2022-09-03T01:20:17.929Z,0
2022-09-03T01:21:21.017Z,0
2022-09-03T01:22:57.611Z,0
2022-09-03T01:24:01.373Z,0
2022-09-03T01:25:06.265Z,0
2022-09-03T01:26:41.668Z,0
2022-09-03T01:27:44.816Z,0
2022-09-03T01:28:48.063Z,0
2022-09-03T01:30:23.253Z,0
2022-09-03T01:31:27.042Z,0
2022-09-03T01:32:30.094Z,0
2022-09-03T01:34:05.155Z,0
2022-09-03T01:35:08.283Z,0
2022-09-03T01:36:11.551Z,0
2022-09-03T01:37:46.803Z,0
2022-09-03T01:38:51.404Z,0
2022-09-03T01:39:55.384Z,0
2022-09-03T01:41:30.378Z,0
2022-09-03T01:42:38.086Z,0
2022-09-03T01:43:50.996Z,0
2022-09-03T01:45:26.261Z,0
2022-09-03T01:46:30.286Z,0
2022-09-03T01:47:35.808Z,0
2022-09-03T01:49:11.054Z,0
2022-09-03T01:50:14.236Z,0
2022-09-03T01:51:17.447Z,0
2022-09-03T01:52:52.884Z,0
2022-09-03T01:53:56.230Z,0
2022-09-03T01:54:59.494Z,0
2022-09-03T01:56:34.888Z,0
2022-09-03T01:58:04.683Z,0
2022-09-03T01:59:07.990Z,0
2022-09-03T02:00:40.152Z,0
2022-09-03T02:01:46.954Z,0
2022-09-03T02:02:50.652Z,0
2022-09-03T02:04:25.978Z,0
2022-09-03T02:05:29.220Z,0
2022-09-03T02:06:32.266Z,0
2022-09-03T02:08:07.429Z,0
2022-09-03T02:09:11.556Z,0
2022-09-03T02:10:16.497Z,0
2022-09-03T02:11:52.078Z,0
2022-09-03T02:12:55.316Z,0
2022-09-03T02:13:58.175Z,0
2022-09-03T02:15:33.552Z,0
2022-09-03T02:16:36.926Z,0
2022-09-03T02:17:40.125Z,0
2022-09-03T02:19:15.277Z,0
2022-09-03T02:20:18.444Z,0
2022-09-03T02:21:21.656Z,0
2022-09-03T02:22:56.863Z,0
2022-09-03T02:24:00.000Z,0
2022-09-03T02:25:03.062Z,0
2022-09-03T02:26:38.013Z,0
2022-09-03T02:27:40.945Z,0
2022-09-03T02:28:46.561Z,0
2022-09-03T02:30:21.450Z,0
2022-09-03T02:31:25.119Z,0
2022-09-03T02:32:28.301Z,0
2022-09-03T02:34:03.574Z,0
2022-09-03T02:35:06.695Z,0
2022-09-03T02:36:09.688Z,0
2022-09-03T02:37:44.954Z,0
2022-09-03T02:38:48.809Z,0
2022-09-03T02:39:56.752Z,0
2022-09-03T02:41:32.335Z,0
2022-09-03T02:42:37.117Z,0
2022-09-03T02:43:43.274Z,0
2022-09-03T02:45:19.337Z,0
2022-09-03T02:46:23.177Z,0
2022-09-03T02:47:26.381Z,0
2022-09-03T02:49:01.869Z,0
2022-09-03T02:50:05.032Z,0
2022-09-03T02:51:20.130Z,0
2022-09-03T02:52:57.254Z,0
2022-09-03T02:54:02.364Z,0
2022-09-03T02:55:05.272Z,0
2022-09-03T02:56:40.059Z,0
2022-09-03T02:57:50.298Z,0
2022-09-03T02:58:53.369Z,0
2022-09-03T03:00:41.147Z,0
2022-09-03T03:02:01.241Z,0
2022-09-03T03:03:04.698Z,0
2022-09-03T03:04:39.450Z,0
2022-09-03T03:05:42.618Z,0
2022-09-03T03:06:47.645Z,0
2022-09-03T03:08:23.139Z,0
2022-09-03T03:09:26.213Z,0
2022-09-03T03:10:29.074Z,0
2022-09-03T03:12:03.977Z,0
2022-09-03T03:13:06.850Z,0
2022-09-03T03:14:09.735Z,0
2022-09-03T03:15:44.496Z,0
2022-09-03T03:16:48.211Z,0
2022-09-03T03:17:51.193Z,0
2022-09-03T03:19:26.167Z,0
2022-09-03T03:20:29.104Z,0
2022-09-03T03:21:32.031Z,0
2022-09-03T03:23:07.255Z,0
2022-09-03T03:24:10.645Z,0
2022-09-03T03:25:13.536Z,0
2022-09-03T03:26:50.349Z,0
2022-09-03T03:27:54.251Z,0
2022-09-03T03:28:57.671Z,0
2022-09-03T03:30:32.721Z,0
2022-09-03T03:31:36.316Z,0
2022-09-03T03:32:39.438Z,0
2022-09-03T03:34:14.342Z,0
2022-09-03T03:35:17.160Z,0
2022-09-03T03:36:20.076Z,0
2022-09-03T03:37:56.535Z,0
2022-09-03T03:39:00.380Z,0
2022-09-03T03:40:03.914Z,0
2022-09-03T03:41:38.779Z,0
2022-09-03T03:42:41.835Z,0
2022-09-03T03:43:45.001Z,0
2022-09-03T03:45:19.954Z,0
2022-09-03T03:46:23.732Z,0
2022-09-03T03:47:26.832Z,0
2022-09-03T03:49:02.067Z,0
2022-09-03T03:50:05.261Z,0
2022-09-03T03:51:08.367Z,0
2022-09-03T03:52:43.386Z,0
2022-09-03T03:53:46.415Z,0
2022-09-03T03:54:49.678Z,0
2022-09-03T03:56:25.135Z,0
2022-09-03T03:57:28.433Z,0
2022-09-03T03:58:31.790Z,0
2022-09-03T04:00:41.533Z,0
2022-09-03T04:01:45.208Z,0
2022-09-03T04:02:52.282Z,0
2022-09-03T04:04:27.146Z,0
2022-09-03T04:06:16.791Z,0
2022-09-03T04:07:19.532Z,0
2022-09-03T04:08:22.157Z,0
2022-09-03T04:09:58.554Z,0
2022-09-03T04:11:01.311Z,0
2022-09-03T04:12:04.286Z,0
2022-09-03T04:13:38.909Z,0
2022-09-03T04:14:41.728Z,0
2022-09-03T04:15:44.540Z,0
2022-09-03T04:17:24.541Z,0
2022-09-03T04:18:28.155Z,0
2022-09-03T04:19:30.874Z,0
2022-09-03T04:21:05.365Z,0
2022-09-03T04:22:08.031Z,0
2022-09-03T04:23:14.410Z,0
2022-09-03T04:24:48.776Z,0
2022-09-03T04:25:51.574Z,0
2022-09-03T04:26:54.303Z,0
2022-09-03T04:28:31.214Z,0
2022-09-03T04:29:33.853Z,0
2022-09-03T04:30:38.082Z,0
2022-09-03T04:32:14.865Z,0
2022-09-03T04:33:27.555Z,0
2022-09-03T04:34:30.519Z,0
2022-09-03T04:36:05.325Z,0
2022-09-03T04:37:13.482Z,0
2022-09-03T04:38:16.162Z,0
2022-09-03T04:39:51.298Z,0
2022-09-03T04:40:54.063Z,0
2022-09-03T04:41:58.202Z,0
2022-09-03T04:43:34.396Z,0
2022-09-03T04:44:37.026Z,0
2022-09-03T04:45:40.115Z,0
2022-09-03T04:47:20.902Z,0
2022-09-03T04:48:23.846Z,0
2022-09-03T04:49:26.749Z,0
2022-09-03T04:51:01.249Z,0
2022-09-03T04:52:04.345Z,0
2022-09-03T04:53:13.280Z,0
2022-09-03T04:54:51.666Z,0
2022-09-03T04:55:54.356Z,0
2022-09-03T04:56:57.049Z,0
2022-09-03T04:58:33.185Z,0
2022-09-03T04:59:36.247Z,0
2022-09-03T05:00:40.167Z,0
2022-09-03T05:01:44.399Z,0
2022-09-03T05:02:49.112Z,0
2022-09-03T05:04:23.782Z,0
2022-09-03T05:05:26.654Z,0
2022-09-03T05:06:29.777Z,0
2022-09-03T05:08:04.364Z,0
2022-09-03T05:09:07.125Z,0
2022-09-03T05:10:09.915Z,0
2022-09-03T05:11:44.450Z,0
2022-09-03T05:12:47.212Z,0
2022-09-03T05:13:49.924Z,0
2022-09-03T05:15:24.598Z,0
2022-09-03T05:16:28.150Z,0
2022-09-03T05:17:32.625Z,0
2022-09-03T05:19:09.480Z,0
2022-09-03T05:20:13.780Z,0
2022-09-03T05:21:16.682Z,0
2022-09-03T05:22:51.292Z,0
2022-09-03T05:23:59.813Z,0
2022-09-03T05:25:02.653Z,0
2022-09-03T05:26:39.178Z,0
2022-09-03T05:27:42.008Z,0
2022-09-03T05:28:46.079Z,0
2022-09-03T05:30:20.361Z,0
2022-09-03T05:31:23.395Z,0
2022-09-03T05:32:26.414Z,0
2022-09-03T05:34:00.978Z,0
2022-09-03T05:35:03.595Z,0
2022-09-03T05:36:06.372Z,0
2022-09-03T05:37:40.850Z,0
2022-09-03T05:38:43.667Z,0
2022-09-03T05:39:46.813Z,0
2022-09-03T05:41:21.629Z,0.435
2022-09-03T05:42:24.330Z,0.435
2022-09-03T05:43:31.013Z,0.435
2022-09-03T05:45:06.729Z,0.435
2022-09-03T05:46:11.661Z,0.435
2022-09-03T05:47:14.466Z,0.435
2022-09-03T05:48:49.272Z,0.435
2022-09-03T05:49:52.239Z,0.435
2022-09-03T05:50:56.030Z,0.435
2022-09-03T05:52:30.545Z,0.435
2022-09-03T05:53:33.380Z,0.435
2022-09-03T05:54:36.128Z,0.435
2022-09-03T05:56:16.149Z,0.435
2022-09-03T05:57:18.844Z,0.435
2022-09-03T05:58:21.624Z,0.435
2022-09-03T05:59:56.400Z,0.435
2022-09-03T06:00:40.355Z,0.435
2022-09-03T06:01:45.793Z,0.435
2022-09-03T06:02:55.501Z,0.435
2022-09-03T06:04:32.740Z,0.435
2022-09-03T06:05:36.099Z,0.585
2022-09-03T06:06:38.780Z,0.435
2022-09-03T06:08:13.203Z,0.585
2022-09-03T06:09:15.842Z,0.585
2022-09-03T06:10:22.346Z,0.585
2022-09-03T06:12:09.323Z,0.585
2022-09-03T06:13:11.992Z,0.585
2022-09-03T06:14:14.642Z,0.735
2022-09-03T06:15:49.177Z,0.735
2022-09-03T06:17:00.796Z,0.735
2022-09-03T06:18:05.016Z,0.735
2022-09-03T06:19:39.540Z,0.885
2022-09-03T06:20:48.212Z,0.735
2022-09-03T06:21:50.906Z,0.885
2022-09-03T06:23:25.313Z,0.735
2022-09-03T06:24:34.096Z,0.885
2022-09-03T06:25:37.897Z,0.885
2022-09-03T06:27:20.199Z,0.885
2022-09-03T06:28:28.870Z,0.885
2022-09-03T06:29:31.663Z,0.885
2022-09-03T06:31:06.149Z,0.885
2022-09-03T06:32:09.716Z,1.02
2022-09-03T06:33:12.462Z,1.02
2022-09-03T06:34:46.960Z,1.02
2022-09-03T06:35:59.423Z,1.02
2022-09-03T06:37:02.277Z,1.02
2022-09-03T06:38:36.932Z,1.02
2022-09-03T06:39:40.372Z,1.17
2022-09-03T06:40:43.229Z,1.02
2022-09-03T06:42:17.792Z,1.02
2022-09-03T06:43:20.528Z,1.17
2022-09-03T06:44:23.725Z,1.17
2022-09-03T06:45:59.034Z,1.17
2022-09-03T06:47:01.767Z,1.17
2022-09-03T06:48:04.465Z,1.17
2022-09-03T06:49:39.603Z,1.32
2022-09-03T06:50:47.321Z,1.32
2022-09-03T06:51:50.145Z,1.32
2022-09-03T06:53:24.782Z,1.32
2022-09-03T06:54:34.754Z,1.47
2022-09-03T06:55:37.467Z,1.47
2022-09-03T06:57:12.097Z,1.47
2022-09-03T06:58:22.013Z,1.47
2022-09-03T06:59:24.936Z,1.47
2022-09-03T07:00:43.322Z,1.47
2022-09-03T07:01:50.435Z,1.47
2022-09-03T07:02:56.284Z,1.47
2022-09-03T07:04:31.897Z,1.47
2022-09-03T07:05:36.906Z,1.47
2022-09-03T07:06:39.695Z,1.47
2022-09-03T07:08:14.468Z,1.47
2022-09-03T07:09:17.156Z,1.755
2022-09-03T07:10:20.066Z,1.47
2022-09-03T07:11:54.674Z,1.47
2022-09-03T07:12:57.428Z,1.47
2022-09-03T07:14:00.224Z,1.755
2022-09-03T07:15:37.024Z,1.755
2022-09-03T07:16:40.384Z,1.755
2022-09-03T07:17:44.035Z,1.755
2022-09-03T07:19:18.620Z,1.905
2022-09-03T07:20:21.425Z,1.905
2022-09-03T07:21:24.323Z,1.905
2022-09-03T07:23:03.540Z,1.905
2022-09-03T07:24:06.371Z,1.905
2022-09-03T07:25:09.211Z,1.905
2022-09-03T07:26:43.860Z,1.905
2022-09-03T07:27:46.627Z,1.755
2022-09-03T07:28:49.262Z,1.755
2022-09-03T07:30:24.553Z,1.755
2022-09-03T07:31:27.451Z,1.755
2022-09-03T07:32:30.488Z,1.905
2022-09-03T07:34:05.417Z,1.905
2022-09-03T07:35:08.582Z,1.905
2022-09-03T07:36:12.582Z,1.905
2022-09-03T07:37:52.037Z,1.905
2022-09-03T07:38:54.756Z,1.905
2022-09-03T07:39:58.218Z,1.755
2022-09-03T07:41:45.320Z,1.905
2022-09-03T07:42:50.970Z,1.905
2022-09-03T07:43:56.057Z,1.905
2022-09-03T07:45:30.874Z,2.055
2022-09-03T07:46:33.753Z,2.055
2022-09-03T07:47:43.952Z,2.055
2022-09-03T07:49:18.473Z,2.19
2022-09-03T07:50:21.233Z,2.055
2022-09-03T07:51:24.062Z,2.055
2022-09-03T07:52:58.777Z,2.34
2022-09-03T07:54:01.535Z,2.34
2022-09-03T07:55:05.148Z,2.34
2022-09-03T07:56:39.897Z,2.49
2022-09-03T07:57:42.666Z,2.49
2022-09-03T07:58:45.773Z,2.49
2022-09-03T08:00:40.330Z,2.64
2022-09-03T08:01:47.246Z,2.64
2022-09-03T08:02:56.187Z,2.64
2022-09-03T08:04:32.534Z,2.64
2022-09-03T08:05:35.661Z,2.64
2022-09-03T08:06:38.691Z,2.79
2022-09-03T08:08:21.077Z,2.79
2022-09-03T08:09:27.948Z,2.79
2022-09-03T08:10:30.984Z,2.64
2022-09-03T08:12:05.901Z,2.64
2022-09-03T08:13:08.783Z,2.64
2022-09-03T08:14:11.600Z,2.64
2022-09-03T08:15:47.264Z,2.79
2022-09-03T08:16:51.014Z,2.79
2022-09-03T08:17:54.309Z,2.79
2022-09-03T08:19:38.638Z,2.79
2022-09-03T08:20:41.870Z,2.64
2022-09-03T08:21:44.877Z,2.64
2022-09-03T08:23:19.729Z,2.79
2022-09-03T08:24:22.720Z,2.79
2022-09-03T08:25:30.456Z,2.64
2022-09-03T08:27:09.705Z,2.64
2022-09-03T08:28:12.700Z,2.64
2022-09-03T08:29:15.531Z,2.49
2022-09-03T08:30:50.293Z,2.79
2022-09-03T08:31:54.602Z,2.79
2022-09-03T08:32:57.693Z,2.64
2022-09-03T08:34:34.400Z,2.64
2022-09-03T08:35:37.634Z,2.64
2022-09-03T08:36:40.812Z,2.79
2022-09-03T08:38:22.151Z,2.925
2022-09-03T08:39:25.935Z,2.925
2022-09-03T08:40:29.128Z,2.925
2022-09-03T08:42:04.714Z,2.925
2022-09-03T08:43:12.438Z,2.925
2022-09-03T08:44:20.196Z,2.925
2022-09-03T08:45:55.230Z,2.925
2022-09-03T08:46:59.496Z,2.925
2022-09-03T08:48:02.547Z,2.925
2022-09-03T08:49:40.527Z,2.925
2022-09-03T08:50:43.546Z,2.925
2022-09-03T08:51:46.516Z,2.925
2022-09-03T08:53:21.305Z,3.075
2022-09-03T08:54:24.347Z,2.925
2022-09-03T08:55:27.488Z,2.925
2022-09-03T08:57:03.052Z,3.075
2022-09-03T08:58:06.199Z,3.075
2022-09-03T08:59:09.314Z,3.075
2022-09-03T09:00:41.096Z,3.225
2022-09-03T09:01:45.056Z,3.225
2022-09-03T09:02:49.469Z,2.925
2022-09-03T09:04:24.873Z,2.925
2022-09-03T09:05:31.771Z,3.075
2022-09-03T09:06:35.067Z,3.225
2022-09-03T09:08:10.298Z,3.225
2022-09-03T09:09:13.847Z,3.225
2022-09-03T09:10:16.876Z,3.225
2022-09-03T09:11:51.752Z,3.075
2022-09-03T09:13:08.226Z,3.225
2022-09-03T09:14:11.250Z,3.225
2022-09-03T09:15:48.209Z,3.51
2022-09-03T09:16:51.569Z,3.66
2022-09-03T09:17:54.497Z,3.51
2022-09-03T09:19:30.351Z,3.225
2022-09-03T09:20:33.502Z,3.075
2022-09-03T09:21:44.798Z,3.225
2022-09-03T09:23:20.558Z,3.51
2022-09-03T09:24:24.974Z,3.51
2022-09-03T09:25:27.982Z,3.66
2022-09-03T09:27:03.086Z,3.66
2022-09-03T09:28:06.266Z,3.66
2022-09-03T09:29:15.880Z,3.66
2022-09-03T09:30:51.432Z,3.51
2022-09-03T09:31:55.987Z,3.51
2022-09-03T09:32:58.914Z,3.225
2022-09-03T09:34:35.470Z,3.225
2022-09-03T09:35:38.521Z,3.51
2022-09-03T09:36:41.542Z,3.51
2022-09-03T09:38:16.986Z,3.66
2022-09-03T09:39:20.172Z,3.66
2022-09-03T09:40:24.102Z,3.66
2022-09-03T09:42:02.143Z,3.075
2022-09-03T09:43:04.998Z,3.225
2022-09-03T09:44:08.137Z,3.225
2022-09-03T09:45:43.264Z,3.225
2022-09-03T09:46:51.386Z,3.225
2022-09-03T09:47:57.242Z,3.51
2022-09-03T09:49:32.533Z,3.81
2022-09-03T09:50:49.107Z,3.81
2022-09-03T09:51:52.267Z,3.81
2022-09-03T09:53:27.484Z,3.66
2022-09-03T09:54:30.522Z,3.81
2022-09-03T09:55:33.309Z,3.81
2022-09-03T09:57:08.315Z,3.81
2022-09-03T09:58:14.482Z,3.81
2022-09-03T09:59:17.720Z,3.81
2022-09-03T10:00:40.225Z,3.51
2022-09-03T10:01:43.746Z,3.51
2022-09-03T10:02:51.156Z,3.66
2022-09-03T10:04:28.800Z,3.51
2022-09-03T10:05:35.609Z,3.66
2022-09-03T10:06:38.562Z,3.81
2022-09-03T10:08:13.325Z,3.81
2022-09-03T10:09:16.105Z,3.81
2022-09-03T10:10:19.151Z,3.81
2022-09-03T10:11:55.294Z,3.81
2022-09-03T10:12:58.299Z,3.96
2022-09-03T10:14:01.328Z,3.96
2022-09-03T10:15:36.354Z,3.96
2022-09-03T10:16:41.420Z,3.96
2022-09-03T10:18:00.085Z,3.96
2022-09-03T10:19:40.665Z,3.96
2022-09-03T10:20:43.711Z,4.095
2022-09-03T10:21:46.684Z,3.96
2022-09-03T10:23:25.488Z,3.96
2022-09-03T10:24:32.998Z,3.96
2022-09-03T10:25:36.177Z,3.96
2022-09-03T10:27:11.106Z,4.095
2022-09-03T10:28:19.297Z,3.96
2022-09-03T10:29:25.208Z,3.96
2022-09-03T10:31:00.799Z,3.96
2022-09-03T10:32:04.164Z,3.96
2022-09-03T10:33:11.094Z,3.96
2022-09-03T10:34:46.183Z,4.095
2022-09-03T10:35:49.247Z,4.095
2022-09-03T10:36:52.204Z,4.095
2022-09-03T10:38:28.396Z,3.96
2022-09-03T10:39:32.069Z,3.96
2022-09-03T10:40:46.120Z,3.96
2022-09-03T10:42:21.921Z,3.81
2022-09-03T10:43:24.999Z,4.095
2022-09-03T10:44:27.984Z,3.96
2022-09-03T10:46:07.498Z,3.96
2022-09-03T10:47:10.953Z,3.96
2022-09-03T10:48:13.937Z,4.095
2022-09-03T10:49:49.067Z,4.095
2022-09-03T10:50:52.234Z,4.095
2022-09-03T10:52:00.927Z,3.96
2022-09-03T10:53:36.188Z,4.095
2022-09-03T10:54:38.997Z,3.96
2022-09-03T10:55:41.816Z,3.96
2022-09-03T10:57:16.650Z,3.96
2022-09-03T10:58:19.809Z,3.96
2022-09-03T10:59:25.089Z,4.095
2022-09-03T11:00:40.071Z,4.095
2022-09-03T11:01:43.607Z,4.245
2022-09-03T11:02:47.556Z,4.245
2022-09-03T11:04:29.831Z,4.395
2022-09-03T11:05:35.240Z,4.245
2022-09-03T11:06:38.331Z,4.245
2022-09-03T11:08:13.749Z,4.245
2022-09-03T11:09:23.456Z,4.395
2022-09-03T11:10:31.200Z,4.095
2022-09-03T11:12:06.464Z,3.96
2022-09-03T11:13:10.055Z,4.095
2022-09-03T11:14:13.233Z,4.245
2022-09-03T11:15:50.832Z,4.245
2022-09-03T11:16:54.834Z,4.245
2022-09-03T11:18:00.672Z,4.245
2022-09-03T11:19:35.913Z,4.395
2022-09-03T11:20:39.268Z,4.395
2022-09-03T11:21:42.512Z,4.395
2022-09-03T11:23:26.996Z,4.395
2022-09-03T11:24:31.057Z,4.095
2022-09-03T11:25:34.534Z,4.095
2022-09-03T11:27:10.032Z,4.095
2022-09-03T11:28:19.208Z,4.095
2022-09-03T11:29:24.002Z,4.095
2022-09-03T11:31:00.040Z,3.96
2022-09-03T11:32:03.649Z,3.96
2022-09-03T11:33:12.917Z,4.095
2022-09-03T11:35:01.125Z,4.095
2022-09-03T11:36:04.490Z,4.095
2022-09-03T11:37:10.844Z,4.095
2022-09-03T11:38:46.273Z,4.245
2022-09-03T11:39:50.358Z,4.095
2022-09-03T11:40:53.964Z,4.095
2022-09-03T11:42:29.515Z,4.095
2022-09-03T11:43:33.633Z,4.095
2022-09-03T11:44:37.001Z,4.245
2022-09-03T11:46:20.702Z,4.095
2022-09-03T11:47:24.256Z,4.245
2022-09-03T11:48:27.777Z,4.245
2022-09-03T11:50:03.296Z,4.245
2022-09-03T11:51:06.576Z,4.245
2022-09-03T11:52:11.222Z,4.245
2022-09-03T11:53:47.703Z,4.395
2022-09-03T11:54:51.259Z,4.395
2022-09-03T11:56:02.137Z,4.545
2022-09-03T11:57:37.871Z,4.245
2022-09-03T11:58:41.166Z,4.395
2022-09-03T11:59:44.783Z,4.545
2022-09-03T12:00:41.264Z,4.545
2022-09-03T12:01:45.150Z,4.695
2022-09-03T12:02:55.485Z,4.695
2022-09-03T12:04:34.347Z,4.98
2022-09-03T12:05:37.657Z,5.28
2022-09-03T12:06:40.984Z,4.83
2022-09-03T12:08:26.151Z,4.83
2022-09-03T12:09:29.693Z,4.98
2022-09-03T12:10:33.131Z,4.98
2022-09-03T12:12:11.351Z,4.545
2022-09-03T12:13:14.651Z,4.395
2022-09-03T12:14:24.423Z,4.395
2022-09-03T12:16:00.612Z,4.395
2022-09-03T12:17:05.801Z,4.395
2022-09-03T12:18:09.217Z,4.395
2022-09-03T12:19:44.702Z,4.245
2022-09-03T12:20:48.239Z,4.095
2022-09-03T12:21:51.527Z,4.095
2022-09-03T12:23:27.122Z,4.095
2022-09-03T12:24:31.842Z,4.095
2022-09-03T12:25:39.972Z,3.96
2022-09-03T12:27:15.671Z,3.96
2022-09-03T12:28:19.003Z,3.96
2022-09-03T12:29:33.829Z,3.96
2022-09-03T12:31:12.909Z,3.96
2022-09-03T12:32:16.375Z,3.81
2022-09-03T12:33:19.895Z,3.81
2022-09-03T12:34:57.332Z,3.81
2022-09-03T12:36:28.357Z,3.81
2022-09-03T12:38:24.122Z,3.81
2022-09-03T12:41:56.881Z,3.225
2022-09-03T12:43:49.047Z,2.49
2022-09-03T12:44:53.693Z,2.19
2022-09-03T12:47:33.872Z,2.055
2022-09-03T12:48:40.590Z,1.905
2022-09-03T12:50:00.211Z,1.905
2022-09-03T12:52:23.466Z,2.055
2022-09-03T12:53:26.899Z,1.905
2022-09-03T12:54:30.288Z,1.905
2022-09-03T12:56:06.031Z,1.905
2022-09-03T12:57:11.875Z,1.905
2022-09-03T12:58:27.348Z,2.055
2022-09-03T13:00:40.965Z,2.055
2022-09-03T13:01:45.393Z,2.055
2022-09-03T13:02:49.015Z,2.49
2022-09-03T13:04:27.430Z,3.075
2022-09-03T13:05:31.542Z,3.075
2022-09-03T13:06:34.553Z,3.075
2022-09-03T13:08:13.110Z,3.225
2022-09-03T13:09:15.897Z,3.225
2022-09-03T13:10:18.826Z,3.075
2022-09-03T13:11:53.525Z,3.075
2022-09-03T13:13:04.240Z,3.075
2022-09-03T13:14:07.749Z,2.925
2022-09-03T13:15:42.391Z,3.075
2022-09-03T13:16:45.719Z,3.075
2022-09-03T13:17:48.447Z,3.075
2022-09-03T13:19:22.939Z,3.075
2022-09-03T13:20:25.737Z,3.075
2022-09-03T13:21:28.473Z,2.925
2022-09-03T13:23:03.103Z,3.075
2022-09-03T13:24:05.845Z,3.075
2022-09-03T13:25:08.570Z,2.925
2022-09-03T13:26:46.477Z,2.925
2022-09-03T13:27:49.191Z,2.925
2022-09-03T13:28:51.768Z,2.925
2022-09-03T13:30:26.287Z,3.075
2022-09-03T13:31:29.554Z,2.925
2022-09-03T13:32:35.847Z,2.925
2022-09-03T13:34:11.060Z,3.075
2022-09-03T13:35:14.073Z,3.075
2022-09-03T13:36:16.744Z,2.925
2022-09-03T13:37:51.460Z,2.925
2022-09-03T13:38:59.589Z,2.925
2022-09-03T13:40:02.936Z,3.075
2022-09-03T13:41:43.522Z,3.075
2022-09-03T13:42:46.300Z,2.925
2022-09-03T13:43:53.752Z,2.925
2022-09-03T13:45:28.955Z,2.925
2022-09-03T13:46:32.223Z,2.925
2022-09-03T13:47:36.108Z,2.925
2022-09-03T13:49:11.145Z,2.64
2022-09-03T13:50:14.566Z,2.49
2022-09-03T13:51:22.253Z,2.64
2022-09-03T13:52:56.969Z,1.905
2022-09-03T13:53:59.705Z,1.905
2022-09-03T13:55:17.677Z,1.905
2022-09-03T13:56:52.714Z,1.755
2022-09-03T13:58:01.857Z,1.905
2022-09-03T13:59:05.244Z,2.055
2022-09-03T14:00:40.590Z,2.925
2022-09-03T14:01:46.265Z,2.925
2022-09-03T14:02:49.564Z,2.925
2022-09-03T14:04:24.248Z,3.075
2022-09-03T14:05:27.148Z,3.075
2022-09-03T14:06:31.348Z,2.925
2022-09-03T14:08:05.871Z,2.055
2022-09-03T14:09:15.531Z,2.055
2022-09-03T14:10:18.431Z,2.925
2022-09-03T14:11:53.295Z,2.925
2022-09-03T14:12:56.282Z,3.075
2022-09-03T14:13:59.134Z,2.925
2022-09-03T14:15:34.338Z,2.925
2022-09-03T14:16:37.649Z,2.925
2022-09-03T14:17:40.579Z,2.79
2022-09-03T14:19:16.698Z,2.79
2022-09-03T14:20:19.685Z,2.79
2022-09-03T14:21:22.546Z,2.925
2022-09-03T14:22:57.407Z,2.34
2022-09-03T14:24:00.290Z,2.79
2022-09-03T14:25:03.558Z,2.34
2022-09-03T14:26:55.337Z,1.905
2022-09-03T14:27:58.387Z,2.19
2022-09-03T14:29:01.379Z,2.64
2022-09-03T14:30:36.185Z,2.79
2022-09-03T14:31:39.356Z,2.055
2022-09-03T14:32:48.148Z,1.905
2022-09-03T14:34:23.122Z,2.925
2022-09-03T14:35:25.872Z,2.925
2022-09-03T14:36:29.001Z,2.925
2022-09-03T14:38:05.549Z,2.925
2022-09-03T14:39:08.603Z,2.925
2022-09-03T14:40:19.000Z,2.925
2022-09-03T14:41:53.826Z,2.925
2022-09-03T14:42:56.868Z,2.925
2022-09-03T14:44:00.662Z,2.925
2022-09-03T14:45:35.662Z,2.925
2022-09-03T14:46:38.984Z,2.925
2022-09-03T14:47:41.753Z,2.925
2022-09-03T14:49:16.660Z,2.79
2022-09-03T14:50:20.012Z,2.79
2022-09-03T14:51:30.296Z,2.79
2022-09-03T14:53:06.472Z,2.79
2022-09-03T14:54:09.563Z,2.79
2022-09-03T14:55:12.635Z,2.79
2022-09-03T14:56:47.319Z,2.79
2022-09-03T14:57:50.295Z,2.64
2022-09-03T14:58:53.337Z,2.64
2022-09-03T15:00:48.738Z,2.64
2022-09-03T15:01:58.378Z,2.79
2022-09-03T15:03:02.716Z,2.79
2022-09-03T15:04:37.452Z,2.64
2022-09-03T15:05:40.849Z,2.64
2022-09-03T15:06:53.520Z,2.79
2022-09-03T15:08:28.380Z,2.64
2022-09-03T15:09:31.297Z,2.64
2022-09-03T15:10:34.602Z,2.64
2022-09-03T15:12:11.188Z,2.64
2022-09-03T15:13:14.621Z,2.49
2022-09-03T15:14:20.203Z,1.755
2022-09-03T15:15:56.709Z,1.47
2022-09-03T15:17:00.445Z,2.34
2022-09-03T15:18:03.756Z,1.905
2022-09-03T15:19:38.639Z,1.47
2022-09-03T15:20:41.755Z,1.47
2022-09-03T15:21:44.672Z,1.47
2022-09-03T15:23:20.714Z,1.47
2022-09-03T15:24:23.799Z,1.32
2022-09-03T15:25:26.948Z,1.32
2022-09-03T15:27:02.119Z,1.32
2022-09-03T15:28:05.406Z,1.32
2022-09-03T15:29:08.474Z,1.32
2022-09-03T15:30:43.620Z,1.32
2022-09-03T15:31:47.332Z,1.32
2022-09-03T15:32:50.315Z,1.32
2022-09-03T15:34:25.316Z,1.32
2022-09-03T15:35:29.489Z,1.32
2022-09-03T15:36:32.513Z,1.32
2022-09-03T15:38:10.741Z,1.32
2022-09-03T15:39:13.949Z,1.32
2022-09-03T15:40:17.988Z,1.32
2022-09-03T15:41:55.025Z,1.32
2022-09-03T15:43:00.238Z,1.32
2022-09-03T15:44:03.455Z,1.32
2022-09-03T15:45:38.658Z,1.32
2022-09-03T15:46:42.177Z,1.32
2022-09-03T15:48:09.184Z,1.32
2022-09-03T15:49:44.162Z,1.32
2022-09-03T15:50:52.007Z,1.32
2022-09-03T15:51:54.956Z,1.17
2022-09-03T15:53:31.479Z,1.17
2022-09-03T15:54:34.598Z,1.32
2022-09-03T15:55:37.694Z,1.47
2022-09-03T15:57:16.953Z,1.47
2022-09-03T15:58:26.519Z,1.47
2022-09-03T15:59:29.859Z,1.32
2022-09-03T16:00:44.372Z,1.02
2022-09-03T16:01:47.801Z,1.02
2022-09-03T16:02:51.455Z,1.02
2022-09-03T16:04:33.301Z,1.02
2022-09-03T16:06:10.027Z,1.02
2022-09-03T16:07:15.315Z,1.02
2022-09-03T16:08:18.260Z,1.02
2022-09-03T16:10:28.641Z,0.885
2022-09-03T16:11:31.335Z,0.885
2022-09-03T16:12:34.002Z,1.02
2022-09-03T16:14:08.551Z,1.02
2022-09-03T16:15:11.277Z,1.02
2022-09-03T16:16:14.403Z,0.885
2022-09-03T16:17:49.176Z,0.885
2022-09-03T16:18:55.603Z,0.885
2022-09-03T16:19:58.226Z,0.885
2022-09-03T16:21:33.088Z,0.885
2022-09-03T16:22:35.714Z,0.885
2022-09-03T16:23:38.452Z,0.735
2022-09-03T16:25:13.222Z,0.885
2022-09-03T16:26:15.931Z,0.735
2022-09-03T16:27:18.531Z,0.885
2022-09-03T16:28:53.027Z,0.735
2022-09-03T16:29:55.684Z,0.735
2022-09-03T16:30:58.421Z,0.735
2022-09-03T16:32:33.378Z,0.735
2022-09-03T16:33:36.041Z,0.735
2022-09-03T16:34:44.505Z,0.735
2022-09-03T16:36:18.924Z,0.735
2022-09-03T16:37:21.720Z,0.585
2022-09-03T16:38:24.458Z,0.585
2022-09-03T16:40:01.843Z,0.585
2022-09-03T16:41:04.690Z,0.585
2022-09-03T16:42:07.659Z,0.735
2022-09-03T16:44:08.372Z,0.585
2022-09-03T16:45:12.298Z,0.585
2022-09-03T16:46:18.277Z,0.585
2022-09-03T16:47:52.691Z,0.585
2022-09-03T16:48:55.520Z,0.435
2022-09-03T16:50:04.045Z,0.585
2022-09-03T16:51:38.679Z,0.585
2022-09-03T16:52:55.182Z,0.585
2022-09-03T16:53:57.851Z,0.585
2022-09-03T16:55:36.234Z,0.585
2022-09-03T16:56:43.257Z,0.435
2022-09-03T16:57:46.150Z,0.435
2022-09-03T16:59:20.791Z,0.435
2022-09-03T17:00:40.581Z,0.435
2022-09-03T17:01:44.508Z,0.435
2022-09-03T17:03:09.166Z,0.435
2022-09-03T17:04:44.309Z,0.435
2022-09-03T17:05:51.199Z,0.435
2022-09-03T17:06:54.735Z,0.435